Time;durP1;ratioP1;P1;durP2;ratioP2;P2;SDS_P1;SDS_P2;PMS_P1;PMS_P2;Temp;Humidity;BMP_temperature;BMP_pressure;BME280_temperature;BME280_humidity;BME280_pressure;Samples;Min_cycle;Max_cycle;Signal;HPM_P1;HPM_P2
2023/01/08 00:03:16;;;;;;;2.93;2.60;;;10.60;99.90;;;;;;2613012;54;20470;-71
2023/01/08 00:09:03;;;;;;;3.13;2.83;;;10.70;99.90;;;;;;2614908;54;20146;-71
2023/01/08 00:14:51;;;;;;;3.90;3.50;;;10.80;99.90;;;;;;2612382;54;20130;-71
2023/01/08 00:20:44;;;;;;;5.13;3.20;;;10.70;99.90;;;;;;2613709;54;20158;-71
2023/01/08 00:26:32;;;;;;;3.27;2.97;;;10.60;99.90;;;;;;2615416;46;20399;-70
2023/01/08 00:32:19;;;;;;;5.50;3.47;;;10.70;99.90;;;;;;2611842;54;20127;-71
2023/01/08 00:38:07;;;;;;;3.00;2.63;;;10.60;99.90;;;;;;2615240;54;20159;-69
2023/01/08 00:43:55;;;;;;;3.47;3.17;;;10.60;99.90;;;;;;2615198;54;20137;-71
2023/01/08 00:49:42;;;;;;;3.13;2.83;;;10.60;99.90;;;;;;2615317;54;20126;-71
2023/01/08 00:59:36;;;;;;;5.50;3.13;;;10.60;99.90;;;;;;2615515;54;20415;-72
2023/01/08 01:05:23;;;;;;;3.67;3.30;;;10.60;99.90;;;;;;2611654;54;20403;-71
2023/01/08 01:17:43;;;;;;;4.00;3.60;;;10.50;99.90;;;;;;2613243;54;20508;-69
2023/01/08 01:23:31;;;;;;;3.90;2.90;;;10.60;99.90;;;;;;2614606;54;20511;-71
2023/01/08 01:29:18;;;;;;;3.60;3.30;;;10.60;99.90;;;;;;2615499;39;20497;-71
2023/01/08 01:35:06;;;;;;;4.20;3.40;;;10.60;99.90;;;;;;2615263;54;20139;-70
2023/01/08 01:40:54;;;;;;;3.50;3.10;;;10.60;99.90;;;;;;2614548;54;20435;-71
2023/01/08 01:46:42;;;;;;;3.50;3.20;;;10.60;99.90;;;;;;2612926;39;20849;-70
2023/01/08 01:52:33;;;;;;;4.00;3.30;;;10.50;99.90;;;;;;2614632;54;20130;-72
2023/01/08 01:55:06;;;;;;;2.83;2.63;;;10.60;99.90;;;;;;2613496;47;20428;-70
2023/01/08 01:57:33;;;;;;;5.07;3.20;;;10.60;99.90;;;;;;2613017;54;20423;-71
2023/01/08 02:03:23;;;;;;;3.47;3.10;;;10.60;99.90;;;;;;2611611;54;20524;-71
2023/01/08 02:26:49;;;;;;;4.50;3.07;;;10.40;99.90;;;;;;2612893;54;20391;-72
2023/01/08 02:32:40;;;;;;;4.37;3.43;;;10.50;99.90;;;;;;2614594;54;20494;-71
2023/01/08 02:38:28;;;;;;;4.33;3.20;;;10.50;99.90;;;;;;2614904;54;20387;-71
2023/01/08 03:00:12;;;;;;;4.53;2.73;;;10.40;99.90;;;;;;2615002;54;20419;-70
2023/01/08 03:06:09;;;;;;;3.77;3.30;;;10.30;99.90;;;;;;2613311;46;20855;-70
2023/01/08 03:18:33;;;;;;;3.80;2.70;;;10.30;99.90;;;;;;2613257;54;20395;-70
2023/01/08 03:24:25;;;;;;;3.67;2.77;;;10.20;99.90;;;;;;2615502;54;20403;-70
2023/01/08 03:30:17;;;;;;;3.83;2.90;;;10.30;99.90;;;;;;2615558;54;20925;-71
2023/01/08 03:36:06;;;;;;;3.97;3.47;;;10.40;99.90;;;;;;2615620;54;20407;-71
2023/01/08 03:41:59;;;;;;;6.00;2.77;;;10.30;99.90;;;;;;2615703;54;20402;-69
2023/01/08 03:47:47;;;;;;;4.30;3.40;;;10.20;99.90;;;;;;2612023;39;21230;-73
2023/01/08 03:53:35;;;;;;;4.07;2.87;;;10.20;99.90;;;;;;2614991;54;20504;-70
2023/01/08 03:59:23;;;;;;;5.73;3.70;;;10.20;99.90;;;;;;2615280;54;20422;-71
2023/01/08 04:05:11;;;;;;;3.30;2.83;;;10.20;99.90;;;;;;2612779;54;20151;-69
2023/01/08 04:10:58;;;;;;;3.80;2.90;;;10.20;99.90;;;;;;2615357;47;20266;-69
2023/01/08 04:16:46;;;;;;;4.27;3.03;;;10.10;99.90;;;;;;2611639;54;20239;-70
2023/01/08 04:22:34;;;;;;;5.43;3.30;;;10.20;99.90;;;;;;2613927;54;20167;-69
2023/01/08 04:28:23;;;;;;;5.30;2.97;;;10.30;99.90;;;;;;2615014;54;20399;-70
2023/01/08 04:34:11;;;;;;;5.50;2.90;;;10.30;99.90;;;;;;2611321;54;20957;-70
2023/01/08 04:39:59;;;;;;;3.70;3.17;;;10.30;99.90;;;;;;2614063;54;20138;-69
2023/01/08 04:45:46;;;;;;;3.53;2.60;;;10.20;99.90;;;;;;2612956;54;20138;-71
2023/01/08 04:51:34;;;;;;;4.20;2.97;;;10.10;99.90;;;;;;2614467;54;20153;-68
2023/01/08 04:57:23;;;;;;;3.40;2.57;;;10.10;99.90;;;;;;2615311;39;20687;-69
2023/01/08 05:03:11;;;;;;;6.70;3.07;;;10.10;99.90;;;;;;2611073;54;20499;-69
2023/01/08 05:08:58;;;;;;;5.60;2.27;;;10.00;99.90;;;;;;2612290;54;20161;-68
2023/01/08 05:14:46;;;;;;;5.20;2.60;;;9.90;99.90;;;;;;2614070;54;20259;-70
2023/01/08 05:20:34;;;;;;;3.60;2.57;;;9.90;99.90;;;;;;2612199;54;20151;-69
2023/01/08 05:26:21;;;;;;;4.47;2.73;;;9.80;99.90;;;;;;2611963;54;20133;-68
2023/01/08 05:32:17;;;;;;;2.63;1.97;;;10.00;99.90;;;;;;2614736;54;20637;-69
2023/01/08 05:38:05;;;;;;;2.70;2.00;;;9.90;99.90;;;;;;2614862;54;20499;-70
2023/01/08 05:43:54;;;;;;;3.87;2.20;;;9.90;99.90;;;;;;2611177;54;21131;-70
2023/01/08 05:49:42;;;;;;;2.70;2.23;;;10.00;99.90;;;;;;2614718;54;20395;-70
2023/01/08 05:59:51;;;;;;;2.87;2.33;;;10.10;99.90;;;;;;2614458;54;20410;-68
2023/01/08 06:05:38;;;;;;;2.60;2.10;;;10.20;99.90;;;;;;2611699;54;20407;-69
2023/01/08 06:11:26;;;;;;;2.90;2.17;;;10.10;99.90;;;;;;2612507;54;20258;-72
2023/01/08 06:17:15;;;;;;;3.93;2.27;;;10.30;99.90;;;;;;2613909;54;20123;-69
2023/01/08 06:23:02;;;;;;;2.30;2.00;;;10.30;99.90;;;;;;2615202;54;21035;-70
2023/01/08 06:28:50;;;;;;;2.27;2.07;;;10.20;99.90;;;;;;2613142;54;20122;-69
2023/01/08 06:34:38;;;;;;;2.70;2.30;;;10.30;99.90;;;;;;2611732;54;20154;-69
2023/01/08 06:40:25;;;;;;;2.80;2.33;;;10.30;99.90;;;;;;2613783;54;20134;-74
2023/01/08 06:46:13;;;;;;;2.30;2.00;;;10.20;99.90;;;;;;2613602;54;20648;-69
2023/01/08 06:52:01;;;;;;;2.90;2.50;;;10.30;99.90;;;;;;2613600;54;20668;-70
2023/01/08 06:55:19;;;;;;;2.70;2.30;;;10.20;99.90;;;;;;2611301;54;20444;-70
2023/01/08 06:57:44;;;;;;;2.10;1.90;;;10.30;99.90;;;;;;2611882;54;20173;-68
2023/01/08 07:03:32;;;;;;;2.70;2.00;;;10.40;99.90;;;;;;2614093;54;20131;-71
2023/01/08 07:09:19;;;;;;;2.30;1.87;;;10.30;99.90;;;;;;2614609;54;20134;-68
2023/01/08 07:15:07;;;;;;;4.97;2.50;;;9.50;99.90;;;;;;2611723;54;20666;-70
2023/01/08 07:20:55;;;;;;;2.90;2.13;;;9.00;99.90;;;;;;2614780;54;20367;-68
2023/01/08 07:26:43;;;;;;;4.13;2.30;;;8.80;99.90;;;;;;2613662;54;20285;-69
2023/01/08 07:32:31;;;;;;;3.83;1.60;;;8.70;99.90;;;;;;2613918;54;20137;-71
2023/01/08 07:38:18;;;;;;;2.40;1.70;;;8.70;99.90;;;;;;2613561;54;20134;-71
2023/01/08 07:44:06;;;;;;;2.73;1.50;;;8.60;99.90;;;;;;2613309;54;20134;-69
2023/01/08 07:49:54;;;;;;;5.40;1.90;;;8.60;99.90;;;;;;2613586;54;20150;-70
2023/01/08 07:59:50;;;;;;;1.90;1.30;;;8.40;99.90;;;;;;2614697;54;20504;-70
2023/01/08 08:05:37;;;;;;;3.37;1.57;;;8.40;99.90;;;;;;2615163;39;20723;-70
2023/01/08 08:11:25;;;;;;;6.47;1.73;;;8.40;99.90;;;;;;2614839;54;20211;-68
2023/01/08 08:17:13;;;;;;;3.03;1.40;;;8.40;99.90;;;;;;2615171;39;20769;-70
2023/01/08 08:23:06;;;;;;;2.90;1.73;;;8.30;99.90;;;;;;2613250;54;20174;-69
2023/01/08 08:28:54;;;;;;;4.30;2.07;;;8.40;99.90;;;;;;2614840;54;20391;-70
2023/01/08 08:34:42;;;;;;;2.30;1.60;;;8.30;99.90;;;;;;2614626;54;20142;-69
2023/01/08 08:40:29;;;;;;;2.60;2.00;;;8.30;99.90;;;;;;2614744;54;20143;-69
2023/01/08 08:46:17;;;;;;;3.37;2.20;;;8.30;99.90;;;;;;2613023;54;20134;-69
2023/01/08 08:52:05;;;;;;;4.33;2.13;;;8.30;99.90;;;;;;2613808;54;20415;-69
2023/01/08 08:55:19;;;;;;;6.17;2.87;;;8.50;99.90;;;;;;2613195;54;20499;-69
2023/01/08 08:57:45;;;;;;;6.70;2.93;;;8.90;99.90;;;;;;2614577;54;20150;-70
2023/01/08 09:03:33;;;;;;;11.03;3.60;;;8.70;99.90;;;;;;2610790;54;20377;-70
2023/01/08 09:09:21;;;;;;;7.10;2.40;;;9.30;99.90;;;;;;2614714;54;20111;-70
2023/01/08 09:15:09;;;;;;;3.83;2.90;;;10.40;99.90;;;;;;2612263;54;20158;-68
2023/01/08 09:21:07;;;;;;;5.30;3.00;;;11.10;99.90;;;;;;2613104;46;20423;-69
2023/01/08 09:26:54;;;;;;;6.60;2.47;;;11.10;99.90;;;;;;2614610;54;20399;-68
2023/01/08 09:32:42;;;;;;;7.23;3.73;;;11.00;99.90;;;;;;2614266;54;20694;-69
2023/01/08 09:38:29;;;;;;;4.07;2.37;;;11.00;99.90;;;;;;2615306;54;20208;-69
2023/01/08 09:44:25;;;;;;;3.63;2.93;;;11.80;99.90;;;;;;2615069;39;20809;-69
2023/01/08 09:50:14;;;;;;;10.90;4.33;;;13.70;99.90;;;;;;2614306;54;20395;-68
2023/01/08 09:59:48;;;;;;;4.17;3.03;;;15.40;55.90;;;;;;2613848;54;20407;-68
2023/01/08 10:05:36;;;;;;;10.53;4.90;;;16.00;44.50;;;;;;2612188;54;20459;-69
2023/01/08 10:11:27;;;;;;;4.60;3.63;;;17.10;40.20;;;;;;2615177;54;20135;-69
2023/01/08 10:17:18;;;;;;;3.70;3.30;;;14.10;65.50;;;;;;2613917;54;21578;-69
2023/01/08 10:23:14;;;;;;;6.13;3.80;;;13.10;85.50;;;;;;2614291;39;20782;-69
2023/01/08 10:29:07;;;;;;;4.03;3.73;;;15.10;52.80;;;;;;2615259;46;20450;-68
2023/01/08 10:34:56;;;;;;;5.30;4.07;;;14.20;60.30;;;;;;2614638;54;20395;-68
2023/01/08 10:40:48;;;;;;;5.37;3.67;;;14.90;80.10;;;;;;2614965;54;20407;-72
2023/01/08 10:46:47;;;;;;;6.13;5.17;;;15.50;40.40;;;;;;2615151;54;20359;-70
2023/01/08 10:52:35;;;;;;;4.70;4.40;;;16.50;33.60;;;;;;2613371;54;20424;-70
2023/01/08 10:58:23;;;;;;;5.70;5.20;;;17.40;32.80;;;;;;2615191;54;20419;-70
2023/01/08 11:10:59;;;;;;;5.17;4.70;;;16.60;27.50;;;;;;2615070;54;20399;-69
2023/01/08 11:16:48;;;;;;;5.00;4.60;;;14.30;43.20;;;;;;2615138;54;20380;-70
2023/01/08 11:22:36;;;;;;;4.80;4.30;;;13.00;80.40;;;;;;2613338;54;20395;-69
2023/01/08 11:34:52;;;;;;;5.97;4.30;;;12.40;99.90;;;;;;2614665;54;20415;-71
2023/01/08 12:03:53;;;;;;;4.47;4.10;;;11.70;99.90;;;;;;2613172;54;20532;-68
2023/01/08 12:09:46;;;;;;;4.77;4.37;;;12.30;99.90;;;;;;2615026;54;20410;-70
2023/01/08 12:22:31;;;;;;;5.07;4.40;;;11.40;99.90;;;;;;2612212;54;20415;-70
2023/01/08 12:28:37;;;;;;;5.00;4.50;;;11.40;99.90;;;;;;2612691;54;20387;-70
2023/01/08 12:34:53;;;;;;;6.40;3.80;;;11.30;99.90;;;;;;2613563;39;20769;-69
2023/01/08 12:40:46;;;;;;;1.50;1.00;;;9.20;99.90;;;;;;2611766;54;20427;-69
2023/01/08 12:46:36;;;;;;;1.80;1.03;;;7.30;99.90;;;;;;2614016;54;20391;-69
2023/01/08 13:03:08;;;;;;;4.20;2.53;;;9.40;99.90;;;;;;2615314;39;20746;-69
2023/01/08 13:08:58;;;;;;;3.13;2.00;;;11.20;99.90;;;;;;2614616;54;20423;-69
2023/01/08 13:14:49;;;;;;;2.40;1.60;;;16.30;99.90;;;;;;2614748;39;20811;-70
2023/01/08 13:20:37;;;;;;;3.10;1.53;;;16.00;66.10;;;;;;2614305;54;20411;-72
2023/01/08 13:26:34;;;;;;;2.13;1.30;;;17.10;75.80;;;;;;2614580;54;20179;-68
2023/01/08 13:32:26;;;;;;;2.87;1.80;;;14.80;90.40;;;;;;2614526;54;20391;-69
2023/01/08 13:38:18;;;;;;;1.67;1.33;;;15.70;62.70;;;;;;2614326;54;21687;-69
2023/01/08 13:50:45;;;;;;;3.83;1.57;;;15.00;66.40;;;;;;2613646;54;20395;-70
2023/01/08 13:56:33;;;;;;;1.90;1.40;;;15.40;65.10;;;;;;2614329;54;20380;-70
2023/01/08 14:09:05;;;;;;;4.23;1.97;;;13.10;69.50;;;;;;2613178;39;20774;-70
2023/01/08 14:14:55;;;;;;;2.70;1.30;;;11.80;99.90;;;;;;2611425;54;20164;-70
2023/01/08 14:20:46;;;;;;;2.13;1.63;;;11.10;99.90;;;;;;2611742;54;20421;-70
2023/01/08 14:26:36;;;;;;;4.30;2.47;;;10.80;99.90;;;;;;2613601;54;20395;-70
2023/01/08 14:32:26;;;;;;;2.80;1.77;;;12.80;99.90;;;;;;2613697;54;20399;-70
2023/01/08 14:38:14;;;;;;;2.43;1.80;;;10.80;99.90;;;;;;2613623;54;20438;-71
2023/01/08 14:40:44;;;;;;;3.87;2.20;;;10.80;99.90;;;;;;2612583;54;20415;-71
2023/01/08 14:43:13;;;;;;;4.20;2.43;;;10.80;99.90;;;;;;2614517;54;20430;-70
2023/01/08 14:49:00;;;;;;;2.70;2.33;;;10.40;99.90;;;;;;2614382;54;20418;-69
2023/01/08 14:54:53;;;;;;;2.40;1.93;;;10.20;99.90;;;;;;2615271;39;20569;-69
2023/01/08 15:04:06;;;;;;;2.80;1.80;;;10.10;99.90;;;;;;2614845;54;20988;-70
2023/01/08 15:10:00;;;;;;;2.30;2.10;;;10.00;99.90;;;;;;2615260;54;20495;-70
2023/01/08 15:15:54;;;;;;;2.80;2.57;;;9.80;99.90;;;;;;2613467;54;21266;-70
2023/01/08 15:21:46;;;;;;;2.73;2.40;;;9.60;99.90;;;;;;2614706;54;20513;-69
2023/01/08 15:27:36;;;;;;;5.93;3.57;;;9.50;99.90;;;;;;2612457;54;20984;-70
2023/01/08 15:33:26;;;;;;;2.60;2.40;;;9.40;99.90;;;;;;2614009;46;20415;-71
2023/01/08 15:39:13;;;;;;;5.00;2.80;;;9.60;99.90;;;;;;2614986;46;20396;-70
2023/01/08 15:45:03;;;;;;;5.33;2.63;;;9.50;99.90;;;;;;2615241;54;20254;-70
2023/01/08 15:50:52;;;;;;;3.80;2.97;;;9.70;99.90;;;;;;2614797;54;20422;-70
2023/01/08 15:56:40;;;;;;;3.03;2.40;;;9.60;99.90;;;;;;2614922;54;20386;-71
2023/01/08 15:59:22;;;;;;;2.97;2.67;;;9.70;99.90;;;;;;2613942;54;20400;-70
2023/01/08 16:01:47;;;;;;;3.50;2.80;;;9.70;99.90;;;;;;2613330;54;20434;-68
2023/01/08 16:07:35;;;;;;;2.97;2.67;;;9.60;99.90;;;;;;2616217;39;20236;-69
2023/01/08 16:13:23;;;;;;;2.83;2.20;;;9.60;99.90;;;;;;2616086;54;20130;-70
2023/01/08 16:19:11;;;;;;;3.17;2.87;;;9.60;99.90;;;;;;2614571;54;20130;-69
2023/01/08 16:24:58;;;;;;;3.93;2.60;;;9.70;99.90;;;;;;2615182;54;20248;-68
2023/01/08 16:30:46;;;;;;;2.70;2.30;;;9.70;99.90;;;;;;2613155;54;20506;-69
2023/01/08 16:36:34;;;;;;;2.50;2.30;;;9.80;99.90;;;;;;2614820;54;20211;-71
2023/01/08 16:42:23;;;;;;;2.80;2.60;;;9.80;99.90;;;;;;2615351;39;21541;-69
2023/01/08 16:48:10;;;;;;;3.97;2.90;;;9.90;99.90;;;;;;2614606;54;20388;-70
2023/01/08 16:53:58;;;;;;;4.33;2.60;;;9.90;99.90;;;;;;2614930;54;20175;-69
2023/01/08 17:03:52;;;;;;;3.57;2.80;;;9.80;99.90;;;;;;2614446;54;20524;-70
2023/01/08 17:09:39;;;;;;;2.87;2.47;;;9.60;99.90;;;;;;2612344;54;21103;-70
2023/01/08 17:15:27;;;;;;;3.90;3.17;;;9.40;99.90;;;;;;2613867;54;20266;-70
2023/01/08 17:21:17;;;;;;;5.50;2.93;;;9.50;99.90;;;;;;2614277;54;20134;-69
2023/01/08 17:27:05;;;;;;;5.17;2.93;;;9.40;99.90;;;;;;2614613;54;20442;-69
2023/01/08 17:32:52;;;;;;;3.83;3.00;;;9.20;99.90;;;;;;2614309;54;20946;-69
2023/01/08 17:38:41;;;;;;;3.37;3.07;;;9.10;99.90;;;;;;2614567;54;20154;-71
2023/01/08 17:44:30;;;;;;;4.67;2.97;;;8.90;99.90;;;;;;2614847;54;20383;-70
2023/01/08 17:50:17;;;;;;;3.47;2.90;;;8.90;99.90;;;;;;2614335;54;20118;-70
2023/01/08 17:56:05;;;;;;;5.53;3.70;;;8.90;99.90;;;;;;2614383;54;20150;-69
2023/01/08 17:59:21;;;;;;;3.83;3.17;;;8.80;99.90;;;;;;2614181;52;20434;-70
2023/01/08 18:01:47;;;;;;;4.00;3.53;;;8.90;99.90;;;;;;2613254;54;20420;-70
2023/01/08 18:07:35;;;;;;;2.97;2.63;;;9.00;99.90;;;;;;2615343;54;20961;-69
2023/01/08 18:13:23;;;;;;;5.20;2.83;;;8.60;99.90;;;;;;2615151;54;20134;-67
2023/01/08 18:19:12;;;;;;;2.93;2.50;;;8.60;99.90;;;;;;2612638;54;20178;-69
2023/01/08 18:25:00;;;;;;;5.60;2.57;;;8.50;99.90;;;;;;2614295;54;20502;-71
2023/01/08 18:30:48;;;;;;;4.10;2.97;;;8.50;99.90;;;;;;2614212;54;20149;-70
2023/01/08 18:36:35;;;;;;;3.13;2.83;;;8.50;99.90;;;;;;2614003;54;20162;-70
2023/01/08 18:42:26;;;;;;;2.80;2.50;;;8.50;99.90;;;;;;2615131;54;20170;-71
2023/01/08 18:48:14;;;;;;;3.07;2.77;;;8.40;99.90;;;;;;2615304;54;20483;-71
2023/01/08 18:54:03;;;;;;;3.40;3.03;;;8.40;99.90;;;;;;2615096;54;20143;-70
2023/01/08 19:03:54;;;;;;;5.33;2.87;;;8.30;99.90;;;;;;2615231;54;20817;-69
2023/01/08 19:09:42;;;;;;;5.37;3.33;;;8.30;99.90;;;;;;2614790;54;20460;-68
2023/01/08 19:15:31;;;;;;;2.47;2.27;;;8.20;99.90;;;;;;2615343;54;20426;-70
2023/01/08 19:21:19;;;;;;;3.07;2.67;;;8.30;99.90;;;;;;2614663;54;20367;-71
2023/01/08 19:27:07;;;;;;;3.73;2.80;;;8.30;99.90;;;;;;2613985;54;20230;-70
2023/01/08 19:32:55;;;;;;;3.07;2.77;;;8.30;99.90;;;;;;2614918;54;20134;-70
2023/01/08 19:38:43;;;;;;;4.47;3.20;;;8.30;99.90;;;;;;2615158;54;20118;-69
2023/01/08 19:44:30;;;;;;;3.07;2.73;;;8.60;99.90;;;;;;2615427;39;20784;-70
2023/01/08 19:50:18;;;;;;;8.57;3.20;;;8.60;99.90;;;;;;2614340;54;20145;-70
2023/01/08 19:56:09;;;;;;;3.23;2.87;;;8.70;99.90;;;;;;2614175;54;20138;-70
2023/01/08 19:59:21;;;;;;;3.43;2.77;;;8.80;99.90;;;;;;2614941;54;20443;-71
2023/01/08 20:01:47;;;;;;;5.80;2.80;;;9.00;99.90;;;;;;2614961;54;20463;-71
2023/01/08 20:07:35;;;;;;;5.03;3.50;;;8.80;99.90;;;;;;2614351;46;20238;-70
2023/01/08 20:13:22;;;;;;;7.00;3.10;;;8.90;99.90;;;;;;2615019;54;20374;-70
2023/01/08 20:19:10;;;;;;;5.17;2.93;;;9.00;99.90;;;;;;2614967;31;20569;-69
2023/01/08 20:24:58;;;;;;;4.03;3.40;;;8.90;99.90;;;;;;2612099;54;20306;-69
2023/01/08 20:30:46;;;;;;;5.30;2.77;;;8.80;99.90;;;;;;2614015;54;20186;-71
2023/01/08 20:36:34;;;;;;;3.07;2.77;;;8.80;99.90;;;;;;2614168;39;20971;-69
2023/01/08 20:39:18;;;;;;;3.60;2.87;;;8.80;99.90;;;;;;2613678;54;20423;-70
2023/01/08 20:41:45;;;;;;;3.53;2.83;;;8.90;99.90;;;;;;2613475;54;20150;-68
2023/01/08 20:47:34;;;;;;;2.97;2.10;;;8.70;99.90;;;;;;2614788;39;20854;-70
2023/01/08 20:53:22;;;;;;;8.10;3.50;;;8.90;99.90;;;;;;2613599;54;20379;-68
2023/01/08 20:59:13;;;;;;;7.03;2.73;;;8.80;99.90;;;;;;2613849;54;20393;-68
2023/01/08 21:05:00;;;;;;;5.00;3.27;;;9.00;99.90;;;;;;2614024;54;20435;-69
2023/01/08 21:17:36;;;;;;;3.63;3.23;;;9.10;99.90;;;;;;2612555;39;20890;-69
2023/01/08 21:23:23;;;;;;;3.20;2.90;;;9.00;99.90;;;;;;2610496;39;20499;-71
2023/01/08 21:29:11;;;;;;;2.70;2.50;;;9.10;99.90;;;;;;2613863;39;20703;-70
2023/01/08 21:34:59;;;;;;;2.87;2.37;;;9.10;99.90;;;;;;2612274;54;20430;-71
2023/01/08 21:40:46;;;;;;;4.90;3.10;;;9.30;99.90;;;;;;2612447;54;20138;-71
2023/01/08 21:46:33;;;;;;;3.77;2.30;;;9.30;99.90;;;;;;2612654;54;20154;-68
2023/01/08 21:58:28;;;;;;;3.13;2.73;;;9.50;99.90;;;;;;2615032;39;20777;-69
2023/01/08 22:04:15;;;;;;;3.20;2.90;;;9.50;99.90;;;;;;2613704;54;20442;-69
2023/01/08 22:07:37;;;;;;;3.87;2.57;;;9.50;99.90;;;;;;2614206;54;20415;-69
2023/01/08 22:13:26;;;;;;;3.50;3.20;;;9.50;99.90;;;;;;2614201;54;20399;-71
2023/01/08 22:19:14;;;;;;;3.40;3.10;;;9.40;99.90;;;;;;2612858;54;20423;-69
2023/01/08 22:25:02;;;;;;;3.17;2.87;;;9.50;99.90;;;;;;2612011;54;20139;-68
2023/01/08 22:30:50;;;;;;;3.37;2.50;;;9.50;99.90;;;;;;2612364;54;20407;-69
2023/01/08 22:36:37;;;;;;;3.03;2.70;;;9.50;99.90;;;;;;2613554;54;20427;-70
2023/01/08 22:42:25;;;;;;;3.30;3.00;;;9.40;99.90;;;;;;2613320;54;20150;-69
2023/01/08 22:48:13;;;;;;;4.13;3.10;;;9.40;99.90;;;;;;2614236;39;20561;-70
2023/01/08 22:54:00;;;;;;;5.57;3.20;;;9.30;99.90;;;;;;2615346;54;20641;-70
2023/01/08 22:59:48;;;;;;;4.30;2.63;;;9.20;99.90;;;;;;2615135;54;20242;-71
2023/01/08 23:12:04;;;;;;;3.77;2.20;;;9.10;99.90;;;;;;2614004;54;20516;-70
2023/01/08 23:17:52;;;;;;;4.10;2.20;;;8.90;99.90;;;;;;2613974;54;20231;-69
2023/01/08 23:23:39;;;;;;;2.73;2.10;;;8.90;99.90;;;;;;2613608;54;20154;-69
2023/01/08 23:32:48;;;;;;;4.90;2.50;;;8.80;99.90;;;;;;2612800;39;20857;-69
2023/01/08 23:38:35;;;;;;;4.53;2.53;;;8.60;99.90;;;;;;2613888;54;20175;-69
2023/01/08 23:44:22;;;;;;;3.90;1.83;;;8.60;99.90;;;;;;2615171;54;20122;-68
2023/01/08 23:50:10;;;;;;;7.73;2.50;;;8.60;99.90;;;;;;2612526;54;20375;-70
2023/01/08 23:55:58;;;;;;;4.20;2.10;;;8.50;99.90;;;;;;2615032;54;20155;-70
